createdAt,value
2017-09-29T00:01:40.152Z,14.30
2017-09-29T00:04:10.807Z,15.50
2017-09-29T00:06:41.359Z,14.93
2017-09-29T00:09:12.618Z,14.70
2017-09-29T00:11:43.569Z,14.07
2017-09-29T00:14:15.117Z,15.60
2017-09-29T00:16:46.054Z,13.10
2017-09-29T00:19:17.062Z,14.20
2017-09-29T00:21:48.026Z,13.80
2017-09-29T00:24:18.936Z,13.10
2017-09-29T00:26:49.732Z,12.90
2017-09-29T00:29:21.237Z,15.57
2017-09-29T00:31:51.949Z,16.23
2017-09-29T00:34:23.431Z,15.73
2017-09-29T00:36:54.381Z,16.80
2017-09-29T00:39:25.370Z,15.80
2017-09-29T00:41:56.204Z,13.98
2017-09-29T00:44:27.152Z,14.07
2017-09-29T00:46:59.111Z,13.85
2017-09-29T00:49:30.558Z,13.80
2017-09-29T00:52:02.761Z,13.90
2017-09-29T00:54:33.896Z,15.37
2017-09-29T00:57:05.177Z,13.38
2017-09-29T00:59:36.011Z,13.00
2017-09-29T01:02:06.784Z,13.62
2017-09-29T01:04:37.964Z,14.50
2017-09-29T01:07:09.119Z,15.65
2017-09-29T01:09:39.978Z,14.47
2017-09-29T01:12:11.850Z,16.87
2017-09-29T01:14:42.742Z,16.77
2017-09-29T01:17:13.390Z,18.98
2017-09-29T01:19:44.306Z,18.30
2017-09-29T01:22:15.452Z,17.80
2017-09-29T01:24:46.167Z,18.17
2017-09-29T01:27:16.890Z,19.50
2017-09-29T01:29:47.959Z,20.33
2017-09-29T01:32:18.738Z,19.67
2017-09-29T01:34:50.490Z,21.67
2017-09-29T01:37:21.079Z,24.90
2017-09-29T01:39:51.864Z,25.05
2017-09-29T01:42:23.397Z,27.25
2017-09-29T01:44:55.194Z,25.85
2017-09-29T01:47:25.839Z,26.58
2017-09-29T01:49:57.365Z,27.95
2017-09-29T01:52:28.654Z,27.80
2017-09-29T01:55:00.455Z,29.92
2017-09-29T01:57:32.116Z,28.85
2017-09-29T02:00:03.804Z,32.42
2017-09-29T02:02:34.928Z,32.65
2017-09-29T02:05:06.197Z,34.65
2017-09-29T02:07:37.471Z,34.92
2017-09-29T02:10:08.524Z,32.08
2017-09-29T02:12:39.513Z,33.40
2017-09-29T02:15:10.966Z,32.17
2017-09-29T02:17:41.567Z,31.30
2017-09-29T02:20:13.781Z,33.58
2017-09-29T02:22:44.829Z,32.08
2017-09-29T02:25:16.094Z,36.22
2017-09-29T02:27:46.981Z,38.58
2017-09-29T02:30:18.024Z,37.90
2017-09-29T02:32:48.904Z,37.78
2017-09-29T02:35:19.637Z,38.95
2017-09-29T02:37:50.836Z,38.22
2017-09-29T02:40:21.405Z,37.80
2017-09-29T02:42:52.027Z,36.97
2017-09-29T02:45:23.289Z,37.85
2017-09-29T02:47:54.412Z,39.87
2017-09-29T02:50:25.852Z,41.95
2017-09-29T02:52:56.825Z,40.12
2017-09-29T02:55:28.133Z,39.72
2017-09-29T02:58:02.033Z,39.05
2017-09-29T03:00:37.565Z,35.75
2017-09-29T03:03:15.567Z,38.05
2017-09-29T03:05:51.875Z,39.53
2017-09-29T03:08:22.887Z,40.10
2017-09-29T03:10:53.626Z,39.65
2017-09-29T03:13:24.176Z,41.60
2017-09-29T03:15:55.220Z,41.42
2017-09-29T03:18:26.672Z,45.78
2017-09-29T03:20:58.024Z,45.50
2017-09-29T03:23:29.993Z,44.80
2017-09-29T03:26:00.996Z,44.47
2017-09-29T03:28:32.263Z,46.03
2017-09-29T03:31:02.953Z,47.55
2017-09-29T03:33:34.676Z,46.92
2017-09-29T03:36:06.507Z,45.63
2017-09-29T03:38:37.388Z,45.25
2017-09-29T03:41:09.320Z,45.33
2017-09-29T03:43:40.582Z,45.33
2017-09-29T03:46:11.756Z,41.75
2017-09-29T03:48:43.733Z,38.17
2017-09-29T03:51:17.574Z,36.22
2017-09-29T03:53:53.064Z,35.38
2017-09-29T03:56:33.575Z,35.15
2017-09-29T03:59:09.072Z,35.05
2017-09-29T04:01:40.571Z,34.83
2017-09-29T04:04:11.058Z,34.40
2017-09-29T04:06:41.992Z,35.05
2017-09-29T04:09:12.794Z,35.25
2017-09-29T04:11:43.678Z,35.95
2017-09-29T04:14:16.095Z,35.60
2017-09-29T04:16:46.974Z,33.42
2017-09-29T04:19:17.755Z,35.60
2017-09-29T04:21:48.492Z,34.17
2017-09-29T04:24:19.535Z,34.55
2017-09-29T04:26:52.048Z,34.33
2017-09-29T04:29:24.254Z,34.17
2017-09-29T04:31:56.612Z,36.38
2017-09-29T04:34:28.897Z,31.48
2017-09-29T04:37:01.467Z,32.17
2017-09-29T04:39:34.073Z,31.85
2017-09-29T04:42:06.861Z,30.80
2017-09-29T04:44:39.322Z,31.65
2017-09-29T04:47:11.750Z,27.50
2017-09-29T04:49:44.008Z,28.30
2017-09-29T04:52:16.328Z,29.15
2017-09-29T04:54:48.861Z,30.00
2017-09-29T04:57:21.266Z,31.70
2017-09-29T04:59:53.634Z,28.65
2017-09-29T05:02:26.108Z,27.52
2017-09-29T05:04:58.578Z,28.40
2017-09-29T05:07:30.782Z,28.60
2017-09-29T05:10:03.489Z,30.40
2017-09-29T05:12:36.499Z,29.83
2017-09-29T05:15:09.082Z,27.00
2017-09-29T05:17:41.537Z,29.80
2017-09-29T05:20:14.064Z,29.90
2017-09-29T05:22:46.579Z,29.10
2017-09-29T05:25:18.981Z,31.17
2017-09-29T05:27:51.460Z,31.87
2017-09-29T05:30:25.060Z,35.38
2017-09-29T05:32:57.322Z,36.83
2017-09-29T05:35:29.665Z,38.05
2017-09-29T05:38:01.976Z,36.53
2017-09-29T05:40:34.314Z,37.63
2017-09-29T05:43:06.516Z,38.00
2017-09-29T05:45:38.788Z,37.03
2017-09-29T05:48:11.259Z,35.13
2017-09-29T05:50:43.917Z,35.67
2017-09-29T05:53:16.957Z,36.60
2017-09-29T05:55:49.062Z,36.17
2017-09-29T05:58:21.830Z,36.22
2017-09-29T06:00:54.069Z,38.53
2017-09-29T06:03:26.067Z,37.15
2017-09-29T06:05:58.542Z,40.00
2017-09-29T06:08:30.557Z,43.45
2017-09-29T06:11:03.117Z,43.40
2017-09-29T06:13:35.585Z,39.70
2017-09-29T06:16:08.007Z,43.05
2017-09-29T06:18:40.076Z,44.17
2017-09-29T06:21:12.158Z,42.95
2017-09-29T06:23:44.155Z,44.83
2017-09-29T06:26:16.371Z,44.13
2017-09-29T06:28:48.673Z,46.00
2017-09-29T06:31:20.800Z,44.60
2017-09-29T06:33:52.742Z,40.22
2017-09-29T06:36:25.699Z,41.55
2017-09-29T06:38:57.927Z,38.75
2017-09-29T06:41:30.164Z,38.90
2017-09-29T06:44:02.399Z,36.70
2017-09-29T06:46:34.577Z,38.05
2017-09-29T06:49:06.817Z,37.47
2017-09-29T06:51:38.907Z,37.42
2017-09-29T06:54:11.456Z,37.30
2017-09-29T06:56:43.626Z,35.50
2017-09-29T06:59:15.719Z,33.80
2017-09-29T07:01:47.671Z,33.42
2017-09-29T07:04:20.186Z,31.80
2017-09-29T07:06:52.336Z,30.30
2017-09-29T07:09:24.505Z,29.10
2017-09-29T07:11:56.481Z,27.17
2017-09-29T07:14:29.152Z,29.83
2017-09-29T07:17:02.003Z,25.80
2017-09-29T07:19:34.552Z,25.90
2017-09-29T07:22:06.873Z,25.37
2017-09-29T07:24:48.089Z,26.47
2017-09-29T07:27:23.527Z,26.53
2017-09-29T07:29:57.303Z,24.60
2017-09-29T07:32:32.980Z,24.37
2017-09-29T07:35:04.854Z,21.77
2017-09-29T07:37:35.816Z,21.27
2017-09-29T07:40:06.782Z,20.67
2017-09-29T07:42:37.716Z,20.30
2017-09-29T07:45:09.050Z,17.23
2017-09-29T07:47:40.509Z,15.80
2017-09-29T07:50:12.204Z,16.57
2017-09-29T07:52:43.099Z,17.50
2017-09-29T07:55:14.767Z,15.97
2017-09-29T07:57:45.725Z,15.43
2017-09-29T08:00:16.511Z,14.23
2017-09-29T08:02:48.234Z,14.10
2017-09-29T08:05:19.172Z,13.50
2017-09-29T08:07:50.011Z,12.47
2017-09-29T08:10:20.638Z,13.77
2017-09-29T08:12:53.020Z,12.77
2017-09-29T08:15:24.473Z,12.83
2017-09-29T08:17:55.439Z,12.53
2017-09-29T08:20:26.305Z,11.37
2017-09-29T08:22:58.130Z,12.63
2017-09-29T08:25:29.087Z,11.47
2017-09-29T08:28:01.913Z,11.27
2017-09-29T08:30:33.396Z,11.90
2017-09-29T08:33:04.900Z,12.00
2017-09-29T08:35:36.908Z,12.30
2017-09-29T08:38:07.835Z,11.83
2017-09-29T08:40:39.509Z,10.20
2017-09-29T08:43:10.184Z,9.40
2017-09-29T08:45:42.041Z,8.40
2017-09-29T08:48:12.989Z,8.50
2017-09-29T08:50:44.318Z,8.83
2017-09-29T08:53:15.326Z,8.70
2017-09-29T08:55:46.460Z,9.30
2017-09-29T08:58:18.426Z,8.50
2017-09-29T09:00:50.924Z,6.90
2017-09-29T09:03:21.876Z,6.20
2017-09-29T09:05:52.697Z,6.77
2017-09-29T09:08:24.728Z,6.67
2017-09-29T09:10:56.275Z,5.97
2017-09-29T09:13:28.710Z,6.43
2017-09-29T09:16:00.094Z,6.17
2017-09-29T09:18:30.952Z,5.20
2017-09-29T09:21:02.986Z,5.60
2017-09-29T09:23:33.665Z,6.77
2017-09-29T09:26:05.100Z,5.40
2017-09-29T09:28:36.391Z,4.93
2017-09-29T09:31:07.430Z,4.67
2017-09-29T09:33:38.507Z,4.97
2017-09-29T09:36:10.580Z,4.37
2017-09-29T09:38:41.409Z,4.67
2017-09-29T09:41:12.543Z,4.60
2017-09-29T09:43:43.335Z,5.07
2017-09-29T09:46:14.271Z,6.50
2017-09-29T09:48:45.226Z,5.17
2017-09-29T09:51:16.105Z,4.70
2017-09-29T09:53:47.545Z,4.37
2017-09-29T09:56:18.018Z,4.97
2017-09-29T09:58:48.891Z,4.50
2017-09-29T10:01:20.421Z,4.17
2017-09-29T10:03:51.427Z,3.70
2017-09-29T10:06:22.116Z,3.53
2017-09-29T10:08:52.789Z,3.17
2017-09-29T10:11:26.105Z,3.73
2017-09-29T10:13:57.219Z,3.53
2017-09-29T10:16:27.785Z,3.30
2017-09-29T10:18:59.331Z,3.73
2017-09-29T10:21:31.305Z,3.30
2017-09-29T10:24:02.469Z,2.97
2017-09-29T10:26:33.404Z,2.87
2017-09-29T10:29:04.708Z,2.87
2017-09-29T10:31:36.270Z,3.40
2017-09-29T10:34:07.789Z,2.90
2017-09-29T10:36:38.538Z,3.07
2017-09-29T10:39:09.346Z,3.40
2017-09-29T10:41:40.086Z,3.60
2017-09-29T10:44:10.762Z,3.83
2017-09-29T10:46:41.469Z,3.83
2017-09-29T10:49:12.643Z,3.10
2017-09-29T10:51:43.089Z,3.40
2017-09-29T10:54:13.587Z,2.93
2017-09-29T10:56:44.368Z,3.33
2017-09-29T10:59:15.050Z,3.53
2017-09-29T11:01:47.041Z,3.77
2017-09-29T11:04:18.313Z,3.20
2017-09-29T11:06:49.371Z,3.30
2017-09-29T11:09:20.242Z,3.60
2017-09-29T11:11:52.375Z,2.87
2017-09-29T11:14:23.240Z,3.10
2017-09-29T11:16:54.682Z,3.47
2017-09-29T11:19:26.077Z,3.93
2017-09-29T11:21:58.410Z,2.70
2017-09-29T11:24:31.440Z,3.10
2017-09-29T11:27:02.489Z,3.70
2017-09-29T11:29:34.163Z,3.17
2017-09-29T11:32:05.492Z,3.20
2017-09-29T11:34:37.314Z,2.90
2017-09-29T11:37:08.269Z,3.60
2017-09-29T11:39:40.030Z,3.50
2017-09-29T11:42:11.085Z,3.13
2017-09-29T11:44:42.005Z,3.37
2017-09-29T11:47:12.808Z,4.50
2017-09-29T11:49:43.800Z,3.90
2017-09-29T11:52:14.836Z,3.23
2017-09-29T11:54:46.043Z,3.23
2017-09-29T11:57:16.977Z,2.90
2017-09-29T11:59:48.550Z,3.90
2017-09-29T12:02:20.548Z,3.80
2017-09-29T12:04:51.905Z,2.80
2017-09-29T12:07:22.386Z,2.67
2017-09-29T12:09:53.222Z,3.23
2017-09-29T12:12:25.510Z,3.30
2017-09-29T12:14:56.345Z,3.20
2017-09-29T12:17:27.982Z,3.37
2017-09-29T12:19:59.645Z,3.70
2017-09-29T12:22:30.814Z,3.03
2017-09-29T12:25:02.144Z,2.80
2017-09-29T12:27:34.099Z,3.00
2017-09-29T12:30:05.331Z,3.03
2017-09-29T12:32:37.096Z,2.83
2017-09-29T12:35:08.806Z,3.70
2017-09-29T12:37:39.757Z,3.03
2017-09-29T12:40:10.611Z,3.10
2017-09-29T12:42:42.803Z,3.23
2017-09-29T12:47:43.410Z,3.03
2017-09-29T12:50:15.983Z,3.90
2017-09-29T12:52:47.874Z,3.23
2017-09-29T12:55:18.444Z,3.20
2017-09-29T12:57:49.339Z,2.43
2017-09-29T13:00:20.357Z,3.20
2017-09-29T13:02:52.296Z,3.00
2017-09-29T13:05:24.650Z,3.20
2017-09-29T13:07:55.858Z,2.70
2017-09-29T13:10:27.675Z,3.20
2017-09-29T13:12:58.458Z,3.07
2017-09-29T13:15:29.752Z,3.77
2017-09-29T13:18:01.101Z,3.67
2017-09-29T13:20:31.782Z,3.10
2017-09-29T13:23:03.221Z,4.20
2017-09-29T13:25:34.016Z,5.17
2017-09-29T13:28:04.919Z,3.10
2017-09-29T13:30:36.651Z,3.80
2017-09-29T13:33:08.398Z,3.40
2017-09-29T13:35:39.322Z,3.50
2017-09-29T13:38:11.829Z,3.70
2017-09-29T13:40:42.989Z,3.40
2017-09-29T13:43:13.608Z,4.10
2017-09-29T13:45:44.650Z,3.53
2017-09-29T13:48:17.012Z,3.60
2017-09-29T13:50:48.277Z,3.43
2017-09-29T13:53:19.500Z,3.40
2017-09-29T13:55:50.694Z,3.47
2017-09-29T13:58:21.465Z,4.00
2017-09-29T14:00:53.250Z,4.57
2017-09-29T14:03:24.760Z,3.93
2017-09-29T14:05:55.842Z,3.80
2017-09-29T14:08:26.886Z,6.70
2017-09-29T14:10:58.711Z,3.73
2017-09-29T14:13:29.450Z,4.43
2017-09-29T14:16:01.960Z,3.80
2017-09-29T14:18:33.979Z,5.00
2017-09-29T14:21:05.029Z,3.97
2017-09-29T14:23:35.895Z,4.40
2017-09-29T14:26:07.651Z,3.97
2017-09-29T14:28:38.685Z,3.70
2017-09-29T14:31:09.806Z,4.10
2017-09-29T14:33:40.665Z,3.83
2017-09-29T14:36:12.181Z,3.80
2017-09-29T14:38:43.401Z,3.23
2017-09-29T14:41:15.216Z,4.67
2017-09-29T14:43:45.874Z,3.97
2017-09-29T14:46:16.849Z,3.77
2017-09-29T14:48:47.855Z,4.80
2017-09-29T14:51:19.239Z,4.20
2017-09-29T14:53:50.634Z,4.30
2017-09-29T14:56:21.700Z,4.70
2017-09-29T14:58:53.569Z,3.53
2017-09-29T15:01:24.195Z,4.40
2017-09-29T15:03:55.415Z,3.93
2017-09-29T15:06:26.725Z,4.10
2017-09-29T15:08:58.317Z,4.40
2017-09-29T15:11:30.003Z,4.00
2017-09-29T15:14:00.736Z,4.50
2017-09-29T15:16:31.662Z,4.37
2017-09-29T15:19:02.618Z,4.17
2017-09-29T15:21:33.964Z,5.03
2017-09-29T15:24:05.483Z,4.53
2017-09-29T15:26:37.119Z,4.00
2017-09-29T15:29:09.303Z,5.07
2017-09-29T15:31:40.436Z,5.30
2017-09-29T15:34:11.800Z,5.33
2017-09-29T15:36:43.072Z,4.00
2017-09-29T15:39:14.748Z,4.30
2017-09-29T15:41:46.802Z,4.07
2017-09-29T15:44:18.446Z,3.80
2017-09-29T15:46:49.523Z,3.93
2017-09-29T15:49:20.317Z,4.20
2017-09-29T15:51:52.476Z,4.03
2017-09-29T15:54:24.241Z,5.10
2017-09-29T15:56:56.069Z,4.90
2017-09-29T15:59:28.512Z,5.17
2017-09-29T16:01:59.707Z,4.87
2017-09-29T16:04:30.811Z,4.60
2017-09-29T16:07:02.319Z,4.43
2017-09-29T16:09:33.019Z,4.63
2017-09-29T16:12:05.476Z,5.60
2017-09-29T16:14:36.605Z,4.93
2017-09-29T16:17:09.277Z,4.97
2017-09-29T16:19:41.025Z,4.50
2017-09-29T16:22:12.339Z,4.40
2017-09-29T16:24:44.299Z,5.23
2017-09-29T16:27:15.912Z,6.17
2017-09-29T16:29:48.113Z,5.47
2017-09-29T16:32:19.603Z,5.50
2017-09-29T16:34:51.102Z,4.70
2017-09-29T16:37:23.564Z,4.63
2017-09-29T16:39:56.240Z,4.27
2017-09-29T16:42:28.653Z,4.57
2017-09-29T16:44:59.773Z,5.13
2017-09-29T16:47:30.640Z,5.97
2017-09-29T16:50:01.118Z,5.72
2017-09-29T16:52:33.237Z,5.77
2017-09-29T16:55:05.195Z,5.30
2017-09-29T16:57:37.332Z,5.30
2017-09-29T17:00:08.850Z,6.60
2017-09-29T17:02:39.735Z,5.00
2017-09-29T17:05:11.063Z,5.63
2017-09-29T17:07:42.654Z,5.40
2017-09-29T17:10:14.273Z,6.07
2017-09-29T17:12:46.734Z,6.57
2017-09-29T17:15:18.560Z,6.50
2017-09-29T17:17:50.423Z,6.33
2017-09-29T17:20:22.203Z,6.27
2017-09-29T17:22:53.682Z,6.33
2017-09-29T17:25:25.403Z,7.50
2017-09-29T17:27:56.287Z,7.53
2017-09-29T17:30:27.439Z,8.20
2017-09-29T17:32:58.711Z,6.90
2017-09-29T17:35:30.284Z,9.00
2017-09-29T17:38:02.127Z,7.87
2017-09-29T17:40:33.468Z,7.83
2017-09-29T17:43:04.655Z,8.30
2017-09-29T17:45:35.445Z,8.13
2017-09-29T17:48:06.593Z,8.07
2017-09-29T17:50:37.567Z,9.47
2017-09-29T17:53:10.219Z,10.13
2017-09-29T17:55:41.681Z,9.10
2017-09-29T17:58:13.028Z,8.97
2017-09-29T18:00:44.046Z,7.83
2017-09-29T18:03:15.291Z,9.17
2017-09-29T18:05:46.523Z,9.90
2017-09-29T18:08:17.547Z,11.87
2017-09-29T18:10:48.916Z,11.20
2017-09-29T18:13:20.217Z,9.73
2017-09-29T18:15:52.889Z,9.20
2017-09-29T18:18:24.040Z,9.30
2017-09-29T18:20:55.755Z,8.43
2017-09-29T18:23:27.931Z,8.13
2017-09-29T18:25:59.274Z,8.47
2017-09-29T18:28:30.571Z,8.53
2017-09-29T18:31:01.814Z,7.63
2017-09-29T18:33:33.325Z,8.57
2017-09-29T18:36:05.018Z,7.50
2017-09-29T18:38:36.461Z,8.27
2017-09-29T18:41:09.164Z,7.60
2017-09-29T18:43:46.930Z,8.80
2017-09-29T18:46:22.462Z,8.50
2017-09-29T18:48:53.911Z,8.07
2017-09-29T18:51:25.216Z,8.20
2017-09-29T18:53:55.927Z,7.00
2017-09-29T18:56:27.729Z,7.70
2017-09-29T18:58:59.387Z,8.53
2017-09-29T19:01:30.398Z,8.40
2017-09-29T19:04:02.260Z,8.97
2017-09-29T19:06:33.653Z,9.53
2017-09-29T19:09:04.509Z,8.50
2017-09-29T19:11:36.751Z,8.80
2017-09-29T19:14:09.235Z,7.77
2017-09-29T19:16:40.530Z,8.50
2017-09-29T19:19:12.531Z,9.90
2017-09-29T19:21:43.859Z,8.40
2017-09-29T19:24:15.146Z,8.77
2017-09-29T19:26:47.253Z,8.80
2017-09-29T19:29:18.237Z,8.60
2017-09-29T19:31:48.561Z,8.60
2017-09-29T19:34:19.211Z,8.83
2017-09-29T19:36:50.578Z,8.30
2017-09-29T19:39:22.008Z,8.27
2017-09-29T19:41:54.604Z,8.23
2017-09-29T19:44:25.462Z,8.40
2017-09-29T19:46:56.399Z,7.40
2017-09-29T19:49:26.819Z,7.53
2017-09-29T19:51:57.466Z,9.10
2017-09-29T19:54:28.220Z,8.07
2017-09-29T19:56:59.187Z,8.50
2017-09-29T19:59:29.705Z,8.30
2017-09-29T20:02:00.809Z,10.03
2017-09-29T20:04:31.436Z,9.40
2017-09-29T20:07:02.463Z,8.87
2017-09-29T20:09:32.770Z,8.77
2017-09-29T20:12:03.410Z,8.50
2017-09-29T20:14:33.944Z,8.20
2017-09-29T20:17:05.035Z,8.97
2017-09-29T20:19:35.333Z,8.70
2017-09-29T20:22:06.016Z,7.60
2017-09-29T20:24:37.464Z,8.53
2017-09-29T20:27:07.643Z,8.63
2017-09-29T20:29:39.778Z,9.63
2017-09-29T20:32:11.397Z,9.50
2017-09-29T20:34:43.689Z,9.20
2017-09-29T20:37:15.495Z,8.23
2017-09-29T20:39:47.320Z,8.83
2017-09-29T20:42:18.667Z,9.00
2017-09-29T20:44:49.886Z,8.23
2017-09-29T20:47:21.453Z,8.40
2017-09-29T20:49:52.818Z,7.90
2017-09-29T20:52:23.950Z,8.23
2017-09-29T20:54:55.565Z,8.93
2017-09-29T20:57:27.632Z,9.10
2017-09-29T20:59:59.269Z,9.43
2017-09-29T21:02:29.954Z,7.90
2017-09-29T21:05:01.988Z,7.77
2017-09-29T21:07:33.145Z,9.33
2017-09-29T21:10:04.510Z,9.60
2017-09-29T21:12:35.644Z,9.13
2017-09-29T21:15:07.371Z,9.27
2017-09-29T21:17:39.501Z,8.50
2017-09-29T21:20:10.496Z,10.40
2017-09-29T21:22:42.647Z,10.43
2017-09-29T21:25:13.579Z,10.37
2017-09-29T21:27:44.934Z,10.47
2017-09-29T21:30:16.680Z,11.07
2017-09-29T21:32:47.576Z,8.97
2017-09-29T21:35:19.837Z,9.47
2017-09-29T21:37:51.948Z,7.77
2017-09-29T21:40:22.900Z,8.40
2017-09-29T21:42:54.851Z,8.20
2017-09-29T21:45:26.368Z,6.73
2017-09-29T21:47:59.276Z,8.67
2017-09-29T21:50:30.347Z,8.57
2017-09-29T21:53:02.238Z,8.77
2017-09-29T21:55:33.285Z,9.20
2017-09-29T21:58:04.399Z,9.37
2017-09-29T22:00:35.886Z,8.83
2017-09-29T22:03:07.518Z,8.80
2017-09-29T22:05:39.118Z,7.93
2017-09-29T22:08:11.017Z,8.53
2017-09-29T22:10:42.605Z,9.47
2017-09-29T22:13:14.216Z,8.67
2017-09-29T22:15:45.717Z,7.70
2017-09-29T22:18:17.657Z,8.80
2017-09-29T22:20:49.533Z,8.00
2017-09-29T22:23:21.217Z,7.93
2017-09-29T22:25:52.589Z,8.63
2017-09-29T22:28:24.004Z,9.27
2017-09-29T22:30:55.006Z,9.07
2017-09-29T22:33:27.134Z,9.03
2017-09-29T22:35:58.162Z,8.60
2017-09-29T22:38:29.511Z,9.10
2017-09-29T22:41:00.514Z,9.50
2017-09-29T22:43:32.241Z,8.70
2017-09-29T22:46:04.537Z,10.00
2017-09-29T22:48:36.220Z,9.30
2017-09-29T22:51:07.043Z,9.40
2017-09-29T22:53:38.749Z,9.23
2017-09-29T22:56:10.221Z,10.30
2017-09-29T22:58:41.423Z,9.90
2017-09-29T23:01:12.543Z,9.33
2017-09-29T23:03:43.377Z,9.77
2017-09-29T23:06:14.365Z,9.40
2017-09-29T23:08:45.719Z,9.70
2017-09-29T23:11:16.597Z,10.43
2017-09-29T23:13:48.286Z,10.20
2017-09-29T23:16:19.431Z,10.57
2017-09-29T23:18:51.551Z,10.90
2017-09-29T23:21:22.555Z,11.10
2017-09-29T23:23:54.408Z,9.70
2017-09-29T23:26:26.463Z,11.20
2017-09-29T23:28:57.417Z,10.97
2017-09-29T23:31:28.620Z,11.77
2017-09-29T23:33:59.853Z,10.93
2017-09-29T23:36:31.141Z,13.00
2017-09-29T23:39:02.327Z,12.60
2017-09-29T23:41:33.267Z,13.43
2017-09-29T23:44:05.072Z,14.17
2017-09-29T23:46:35.820Z,14.40
2017-09-29T23:49:06.554Z,14.50
2017-09-29T23:51:37.252Z,14.10
2017-09-29T23:54:08.328Z,14.00
2017-09-29T23:56:39.207Z,16.40
2017-09-29T23:59:10.701Z,15.37
